Bushy Park, Australia
Current Conditions -  °F | °C
As of 7:00 PM on Friday 31 Oct 2014 (Local Time) from YMHB Reporting Station
Clear Clear  
Wind Chill: 68°   Ceiling: Unl
Heat Index: 68°   Visibility: 6mi
Dew Point: 48°   Wind: 16mph
Humidity: 49%   Direction: 360°N
Pressure: 29.35"   Gusts: NA
Location:  42.7°S, 146.88°E
Report Text: YMHB 310800Z 36014KT CAVOK 20/09 Q0994
Loading
Personal Weather Stations






























Interactive Weather Map
Tropical Storm Tracking
New forecast layout! Learn more

10-Day Weather Forecast

Advertisements
Track Severe Weather on mobile